Time;durP1;ratioP1;P1;durP2;ratioP2;P2;SDS_P1;SDS_P2;PMS_P1;PMS_P2;Temp;Humidity;BMP_temperature;BMP_pressure;BME280_temperature;BME280_humidity;BME280_pressure;Samples;Min_cycle;Max_cycle;Signal;HPM_P1;HPM_P2
2021/03/29 00:00:14;;;;;;;8.43;4.40;;;;;;;;;;1048799;28;20425;-45
2021/03/29 00:00:44;;;;;;;8.40;4.00;;;;;;;;;;1048759;28;20065;-43
2021/03/29 00:01:14;;;;;;;9.60;3.87;;;;;;;;;;1048691;28;20032;-43
2021/03/29 00:01:44;;;;;;;9.83;4.30;;;;;;;;;;1049169;28;20020;-45
2021/03/29 00:02:15;;;;;;;10.20;4.17;;;;;;;;;;1049217;28;20019;-43
2021/03/29 00:02:46;;;;;;;11.67;4.30;;;;;;;;;;1048953;28;20099;-45
2021/03/29 00:03:16;;;;;;;8.40;4.22;;;;;;;;;;1048992;28;20021;-43
2021/03/29 00:03:47;;;;;;;7.53;4.10;;;;;;;;;;1048944;28;20017;-46
2021/03/29 00:04:17;;;;;;;8.50;4.30;;;;;;;;;;1048840;28;20016;-45
2021/03/29 00:04:47;;;;;;;9.07;4.90;;;;;;;;;;1048685;28;20009;-44
2021/03/29 00:05:18;;;;;;;7.60;4.43;;;;;;;;;;1048750;28;20048;-44
2021/03/29 00:05:48;;;;;;;7.37;4.40;;;;;;;;;;1048593;28;20481;-46
2021/03/29 00:06:19;;;;;;;11.63;4.33;;;;;;;;;;1048667;28;20021;-47
2021/03/29 00:06:49;;;;;;;12.73;3.90;;;;;;;;;;1048523;28;20422;-44
2021/03/29 00:07:20;;;;;;;9.07;4.57;;;;;;;;;;1048932;28;20012;-44
2021/03/29 00:07:59;;;;;;;9.30;4.37;;;;;;;;;;1044883;28;20028;-44
2021/03/29 00:08:30;;;;;;;10.88;4.70;;;;;;;;;;1044627;28;20058;-43
2021/03/29 00:09:00;;;;;;;8.93;4.82;;;;;;;;;;1044562;28;20017;-48
2021/03/29 00:09:31;;;;;;;9.00;4.23;;;;;;;;;;1045907;28;20025;-45
2021/03/29 00:10:03;;;;;;;8.73;4.43;;;;;;;;;;1044704;28;20421;-44
2021/03/29 00:10:33;;;;;;;9.93;4.07;;;;;;;;;;1048666;28;20021;-45
2021/03/29 00:11:04;;;;;;;8.93;3.83;;;;;;;;;;1048657;28;20435;-46
2021/03/29 00:11:34;;;;;;;7.83;4.20;;;;;;;;;;1048797;28;20067;-44
2021/03/29 00:12:05;;;;;;;9.67;4.03;;;;;;;;;;1044460;28;20397;-45
2021/03/29 00:12:36;;;;;;;8.20;3.50;;;;;;;;;;1044478;28;20092;-43
2021/03/29 00:13:06;;;;;;;8.10;3.87;;;;;;;;;;1040679;28;20452;-45
2021/03/29 00:13:36;;;;;;;8.10;3.90;;;;;;;;;;1036468;28;20482;-45
2021/03/29 00:14:07;;;;;;;7.77;4.00;;;;;;;;;;1044592;28;20021;-44
2021/03/29 00:14:37;;;;;;;7.83;4.03;;;;;;;;;;1040168;28;20115;-48
2021/03/29 00:15:08;;;;;;;8.37;3.80;;;;;;;;;;1040091;28;20124;-45
2021/03/29 00:15:42;;;;;;;7.30;3.63;;;;;;;;;;1044312;28;20064;-44
2021/03/29 00:16:13;;;;;;;8.23;4.22;;;;;;;;;;1044594;28;20021;-44
2021/03/29 00:16:43;;;;;;;9.27;3.70;;;;;;;;;;1045036;28;20017;-47
2021/03/29 00:17:13;;;;;;;8.30;4.00;;;;;;;;;;1048620;28;20031;-47
2021/03/29 00:17:44;;;;;;;8.50;3.80;;;;;;;;;;1048845;28;20016;-46
2021/03/29 00:18:14;;;;;;;9.47;4.40;;;;;;;;;;1048610;28;20020;-48
2021/03/29 00:18:45;;;;;;;8.30;4.20;;;;;;;;;;1048564;28;20017;-45
2021/03/29 00:19:15;;;;;;;9.20;4.70;;;;;;;;;;1048611;28;20111;-44
2021/03/29 00:19:45;;;;;;;6.87;4.40;;;;;;;;;;1048645;28;20009;-45
2021/03/29 00:20:22;;;;;;;10.30;4.23;;;;;;;;;;1048668;28;20082;-45
2021/03/29 00:20:54;;;;;;;10.95;4.15;;;;;;;;;;1049045;28;20036;-46
2021/03/29 00:21:24;;;;;;;7.57;3.97;;;;;;;;;;1048691;28;20059;-45
2021/03/29 00:21:55;;;;;;;8.73;3.97;;;;;;;;;;1048667;28;20453;-46
2021/03/29 00:22:25;;;;;;;8.87;4.57;;;;;;;;;;1049170;28;20007;-46
2021/03/29 00:22:58;;;;;;;9.63;4.07;;;;;;;;;;1048933;28;20000;-46
2021/03/29 00:23:29;;;;;;;9.48;4.30;;;;;;;;;;1048791;28;20019;-47
2021/03/29 00:23:59;;;;;;;10.43;4.20;;;;;;;;;;1048587;28;20366;-46
2021/03/29 00:24:30;;;;;;;8.77;4.10;;;;;;;;;;1049514;28;20005;-45
2021/03/29 00:25:00;;;;;;;15.63;4.60;;;;;;;;;;1048647;28;20009;-46
2021/03/29 00:25:31;;;;;;;9.40;4.23;;;;;;;;;;1044531;28;20040;-45
2021/03/29 00:26:02;;;;;;;8.50;4.17;;;;;;;;;;1044256;28;20001;-43
2021/03/29 00:26:32;;;;;;;8.98;4.20;;;;;;;;;;1044841;28;20040;-44
2021/03/29 00:27:03;;;;;;;11.20;4.73;;;;;;;;;;1044542;28;20017;-44
2021/03/29 00:27:33;;;;;;;9.83;4.63;;;;;;;;;;1048639;28;20008;-44
2021/03/29 00:28:03;;;;;;;11.23;4.57;;;;;;;;;;1044525;28;20009;-47
2021/03/29 00:28:34;;;;;;;10.33;4.67;;;;;;;;;;1044637;28;20497;-44
2021/03/29 00:29:04;;;;;;;10.93;4.50;;;;;;;;;;1048669;28;20055;-45
2021/03/29 00:29:34;;;;;;;12.03;5.40;;;;;;;;;;1048674;28;20080;-44
2021/03/29 00:30:08;;;;;;;10.97;4.57;;;;;;;;;;1048578;28;20012;-44
2021/03/29 00:30:39;;;;;;;8.57;3.90;;;;;;;;;;1048900;28;20001;-45
2021/03/29 00:31:10;;;;;;;8.50;4.70;;;;;;;;;;1049024;28;20001;-43
2021/03/29 00:31:41;;;;;;;11.77;4.45;;;;;;;;;;1048994;28;20465;-44
2021/03/29 00:32:11;;;;;;;10.20;4.37;;;;;;;;;;1048997;28;20008;-45
2021/03/29 00:32:41;;;;;;;8.43;4.27;;;;;;;;;;1048921;28;20520;-42
2021/03/29 00:33:11;;;;;;;8.13;4.30;;;;;;;;;;1044393;28;20020;-43
2021/03/29 00:33:42;;;;;;;11.93;4.30;;;;;;;;;;1044227;28;20025;-44
2021/03/29 00:34:12;;;;;;;10.47;4.77;;;;;;;;;;1040518;28;20047;-44
2021/03/29 00:34:42;;;;;;;8.13;4.10;;;;;;;;;;1040266;28;20009;-43
2021/03/29 00:35:13;;;;;;;11.77;4.77;;;;;;;;;;1044492;28;20001;-43
2021/03/29 00:35:44;;;;;;;11.43;4.55;;;;;;;;;;1044516;28;20021;-43
2021/03/29 00:36:15;;;;;;;9.40;5.30;;;;;;;;;;1048714;28;20073;-45
2021/03/29 00:36:45;;;;;;;9.50;4.30;;;;;;;;;;1044528;28;20012;-44
2021/03/29 00:37:16;;;;;;;8.27;4.33;;;;;;;;;;1044471;28;20005;-43
2021/03/29 00:37:46;;;;;;;11.40;4.40;;;;;;;;;;1044699;28;20009;-44
2021/03/29 00:38:17;;;;;;;11.67;5.50;;;;;;;;;;1044608;28;20006;-45
2021/03/29 00:38:47;;;;;;;9.13;4.97;;;;;;;;;;1044473;28;20043;-43
2021/03/29 00:39:17;;;;;;;13.73;5.10;;;;;;;;;;1044482;28;20480;-45
2021/03/29 00:39:48;;;;;;;7.90;4.50;;;;;;;;;;1044342;28;20021;-44
2021/03/29 00:40:18;;;;;;;9.73;4.67;;;;;;;;;;1044404;28;20496;-43
2021/03/29 00:40:49;;;;;;;10.27;4.60;;;;;;;;;;1044367;28;20021;-43
2021/03/29 00:41:20;;;;;;;8.63;4.70;;;;;;;;;;1044438;28;20206;-45
2021/03/29 00:41:50;;;;;;;8.57;4.60;;;;;;;;;;1040508;28;20069;-42
2021/03/29 00:42:20;;;;;;;10.53;3.87;;;;;;;;;;1040463;28;20043;-43
2021/03/29 00:43:20;;;;;;;8.03;4.23;;;;;;;;;;1044389;28;20009;-43
2021/03/29 00:43:50;;;;;;;10.82;4.10;;;;;;;;;;1044175;28;20517;-45
2021/03/29 00:44:21;;;;;;;10.67;4.07;;;;;;;;;;1040145;28;20025;-43
2021/03/29 00:44:51;;;;;;;10.33;4.50;;;;;;;;;;1044174;28;20021;-42
2021/03/29 00:45:21;;;;;;;9.10;4.20;;;;;;;;;;1044625;28;20028;-43
2021/03/29 00:45:52;;;;;;;10.30;4.70;;;;;;;;;;1040272;28;20026;-43
2021/03/29 00:46:22;;;;;;;9.20;4.40;;;;;;;;;;1044400;28;20013;-43
2021/03/29 00:46:53;;;;;;;7.93;4.13;;;;;;;;;;1044189;28;20029;-46
2021/03/29 00:47:23;;;;;;;7.50;4.20;;;;;;;;;;1044458;28;20108;-45
2021/03/29 00:47:53;;;;;;;8.90;4.50;;;;;;;;;;1044311;28;20028;-44
2021/03/29 00:48:24;;;;;;;7.87;4.57;;;;;;;;;;1019041;28;609437;-43
2021/03/29 00:48:55;;;;;;;8.63;4.47;;;;;;;;;;1040592;28;20507;-43
2021/03/29 00:49:25;;;;;;;11.60;4.63;;;;;;;;;;1040453;28;20017;-44
2021/03/29 00:49:55;;;;;;;9.37;4.47;;;;;;;;;;1040513;28;20013;-44
2021/03/29 00:50:46;;;;;;;12.40;4.70;;;;;;;;;;1040585;28;20022;-42
2021/03/29 00:51:20;;;;;;;10.95;4.68;;;;;;;;;;1040233;28;20029;-43
2021/03/29 00:51:50;;;;;;;11.38;4.35;;;;;;;;;;1043942;28;20062;-43
2021/03/29 00:52:20;;;;;;;9.77;4.10;;;;;;;;;;1047744;28;20484;-46
2021/03/29 00:52:51;;;;;;;12.07;4.60;;;;;;;;;;1044531;28;20366;-43
2021/03/29 00:53:21;;;;;;;8.13;4.63;;;;;;;;;;1040391;28;20010;-42
2021/03/29 00:53:53;;;;;;;12.60;4.50;;;;;;;;;;1040404;28;20044;-43
2021/03/29 00:54:23;;;;;;;8.90;4.80;;;;;;;;;;1040739;28;20013;-44
2021/03/29 00:54:53;;;;;;;11.27;4.60;;;;;;;;;;1040845;28;20009;-43
2021/03/29 00:55:23;;;;;;;8.87;4.43;;;;;;;;;;1040420;28;20455;-43
2021/03/29 00:55:54;;;;;;;9.87;4.83;;;;;;;;;;1040366;28;20006;-44
2021/03/29 00:56:24;;;;;;;9.20;4.73;;;;;;;;;;1036369;28;20021;-44
2021/03/29 00:56:55;;;;;;;11.03;4.80;;;;;;;;;;1036370;28;20104;-44
2021/03/29 00:57:25;;;;;;;11.10;4.73;;;;;;;;;;1040304;28;20006;-46
2021/03/29 00:57:55;;;;;;;9.17;4.50;;;;;;;;;;1044431;28;20009;-43
2021/03/29 00:58:25;;;;;;;11.27;5.03;;;;;;;;;;1049101;28;20008;-42
2021/03/29 00:58:56;;;;;;;13.50;4.70;;;;;;;;;;1044807;28;20052;-42
2021/03/29 00:59:26;;;;;;;8.50;4.93;;;;;;;;;;1044720;28;20511;-43
2021/03/29 00:59:57;;;;;;;10.40;4.50;;;;;;;;;;1040451;28;20136;-42
2021/03/29 01:00:32;;;;;;;13.47;5.50;;;;;;;;;;1040612;28;20477;-43
2021/03/29 01:01:04;;;;;;;10.95;4.75;;;;;;;;;;1044512;28;20017;-43
2021/03/29 01:01:42;;;;;;;9.30;5.25;;;;;;;;;;1045521;28;20021;-43
2021/03/29 01:02:12;;;;;;;13.02;4.88;;;;;;;;;;1048543;28;20054;-43
2021/03/29 01:02:43;;;;;;;10.30;4.93;;;;;;;;;;1044624;28;20044;-43
2021/03/29 01:03:17;;;;;;;12.40;5.43;;;;;;;;;;1040462;28;20010;-42
2021/03/29 01:03:48;;;;;;;10.77;4.82;;;;;;;;;;1040210;28;20014;-43
2021/03/29 01:04:18;;;;;;;9.18;5.32;;;;;;;;;;1040398;28;20025;-43
2021/03/29 01:04:48;;;;;;;9.63;5.13;;;;;;;;;;1036896;28;20037;-43
2021/03/29 01:05:19;;;;;;;10.17;5.10;;;;;;;;;;1040272;28;20017;-44
2021/03/29 01:06:10;;;;;;;12.55;5.55;;;;;;;;;;1040769;28;20021;-44
2021/03/29 01:06:40;;;;;;;;;;;;;;;;;;1047659;28;20024;-43
2021/03/29 01:07:11;;;;;;;10.50;5.20;;;;;;;;;;1048630;28;19942;-43
2021/03/29 01:07:42;;;;;;;8.80;5.37;;;;;;;;;;1044434;28;20454;-43
2021/03/29 01:08:13;;;;;;;11.20;5.22;;;;;;;;;;1040610;28;20383;-45
2021/03/29 01:08:44;;;;;;;10.80;5.10;;;;;;;;;;1040846;28;20013;-43
2021/03/29 01:09:18;;;;;;;11.02;5.38;;;;;;;;;;1036865;28;20025;-43
2021/03/29 01:09:48;;;;;;;10.38;5.35;;;;;;;;;;1041133;28;20098;-43
2021/03/29 01:10:18;;;;;;;15.40;5.67;;;;;;;;;;1044778;28;20017;-43
2021/03/29 01:10:49;;;;;;;9.53;5.20;;;;;;;;;;1041061;28;20100;-44
2021/03/29 01:11:23;;;;;;;12.83;5.57;;;;;;;;;;1044784;28;20024;-43
2021/03/29 01:11:54;;;;;;;9.20;5.00;;;;;;;;;;1041075;28;20096;-43
2021/03/29 01:12:24;;;;;;;10.45;4.72;;;;;;;;;;1041311;28;20025;-43
2021/03/29 01:12:54;;;;;;;8.87;4.90;;;;;;;;;;1045573;28;20136;-43
2021/03/29 01:13:25;;;;;;;11.13;5.23;;;;;;;;;;1044622;28;20028;-45
2021/03/29 01:13:57;;;;;;;14.23;5.17;;;;;;;;;;1044684;28;20021;-43
2021/03/29 01:14:28;;;;;;;12.52;5.20;;;;;;;;;;1040717;28;20016;-43
2021/03/29 01:14:58;;;;;;;9.27;5.00;;;;;;;;;;1040732;28;20048;-43
2021/03/29 01:15:28;;;;;;;10.80;5.10;;;;;;;;;;1041057;28;20494;-42
2021/03/29 01:15:59;;;;;;;10.47;5.10;;;;;;;;;;1044726;28;20417;-43
2021/03/29 01:16:30;;;;;;;11.07;5.20;;;;;;;;;;1044573;28;20112;-43
2021/03/29 01:17:06;;;;;;;9.95;4.90;;;;;;;;;;1040637;28;20021;-43
2021/03/29 01:17:36;;;;;;;11.13;5.30;;;;;;;;;;1044689;28;20045;-43
2021/03/29 01:18:08;;;;;;;9.83;5.13;;;;;;;;;;1041058;28;20371;-44
2021/03/29 01:18:38;;;;;;;15.55;5.88;;;;;;;;;;1041135;28;20021;-43
2021/03/29 01:19:20;;;;;;;11.87;5.17;;;;;;;;;;1040584;28;20028;-44
2021/03/29 01:20:02;;;;;;;10.68;5.63;;;;;;;;;;1042168;28;20160;-43
2021/03/29 01:20:32;;;;;;;38.00;18.25;;;;;;;;;;1044405;28;20450;-43
2021/03/29 01:21:05;;;;;;;42.33;20.90;;;;;;;;;;1047898;28;20008;-43
2021/03/29 01:21:39;;;;;;;56.97;28.40;;;;;;;;;;1051124;28;20481;-43
2021/03/29 01:22:09;;;;;;;34.60;16.77;;;;;;;;;;1053360;28;19996;-42
2021/03/29 01:22:40;;;;;;;26.83;13.90;;;;;;;;;;1053278;28;20016;-42
2021/03/29 01:23:11;;;;;;;25.23;13.50;;;;;;;;;;1053134;28;20023;-42
2021/03/29 01:23:41;;;;;;;24.17;12.90;;;;;;;;;;1053265;28;20027;-42
2021/03/29 01:24:30;;;;;;;22.17;10.80;;;;;;;;;;1053299;28;20001;-43
2021/03/29 01:25:01;;;;;;;22.55;10.52;;;;;;;;;;1053285;28;20007;-42
2021/03/29 01:25:33;;;;;;;21.77;11.80;;;;;;;;;;1053514;28;20047;-43
2021/03/29 01:26:09;;;;;;;22.98;11.88;;;;;;;;;;1052892;28;20047;-43
2021/03/29 01:26:43;;;;;;;21.95;10.18;;;;;;;;;;1049056;28;20331;-43
2021/03/29 01:27:13;;;;;;;17.83;9.15;;;;;;;;;;1044775;28;20059;-43
2021/03/29 01:27:46;;;;;;;21.10;11.20;;;;;;;;;;1037618;28;20403;-43
2021/03/29 01:28:17;;;;;;;31.40;15.30;;;;;;;;;;1041525;28;20005;-44
2021/03/29 01:28:47;;;;;;;33.40;15.18;;;;;;;;;;1045311;28;20084;-43
2021/03/29 01:29:17;;;;;;;32.77;14.37;;;;;;;;;;1045655;28;20013;-43
2021/03/29 01:29:48;;;;;;;31.10;14.40;;;;;;;;;;1052819;28;20001;-44
2021/03/29 01:30:18;;;;;;;31.63;15.53;;;;;;;;;;1052946;28;20078;-44
2021/03/29 01:30:49;;;;;;;25.83;13.03;;;;;;;;;;1048856;28;20009;-43
2021/03/29 01:31:19;;;;;;;17.07;8.83;;;;;;;;;;1052847;28;20012;-43
2021/03/29 01:31:49;;;;;;;18.97;8.80;;;;;;;;;;1053002;28;20016;-45
2021/03/29 01:32:20;;;;;;;19.60;9.43;;;;;;;;;;1048847;28;20001;-44
2021/03/29 01:32:50;;;;;;;21.90;10.40;;;;;;;;;;1044739;28;20013;-45
2021/03/29 01:33:20;;;;;;;22.13;10.23;;;;;;;;;;1044635;28;20482;-43
2021/03/29 01:33:50;;;;;;;22.50;10.10;;;;;;;;;;1044623;28;20013;-43
2021/03/29 01:34:21;;;;;;;20.33;10.17;;;;;;;;;;1044939;28;20009;-44
2021/03/29 01:34:51;;;;;;;16.20;8.80;;;;;;;;;;1048873;28;20091;-44
2021/03/29 01:35:31;;;;;;;16.80;8.17;;;;;;;;;;1044867;28;20028;-43
2021/03/29 01:36:01;;;;;;;14.75;8.02;;;;;;;;;;1050018;28;20004;-43
2021/03/29 01:36:32;;;;;;;15.43;8.37;;;;;;;;;;1052992;28;20297;-43
2021/03/29 01:37:02;;;;;;;15.63;6.93;;;;;;;;;;1049936;28;20005;-43
2021/03/29 01:37:32;;;;;;;15.63;7.57;;;;;;;;;;1048683;28;20062;-45
2021/03/29 01:38:03;;;;;;;15.30;7.70;;;;;;;;;;1044679;28;20016;-44
2021/03/29 01:38:33;;;;;;;14.03;6.97;;;;;;;;;;1044644;28;20008;-43
2021/03/29 01:39:04;;;;;;;10.50;6.60;;;;;;;;;;1048940;28;20479;-44
2021/03/29 01:39:34;;;;;;;12.57;7.00;;;;;;;;;;1052943;28;20011;-44
2021/03/29 01:40:04;;;;;;;11.70;5.60;;;;;;;;;;1053081;28;20039;-43
2021/03/29 01:40:35;;;;;;;12.13;6.03;;;;;;;;;;1048800;28;20016;-43
2021/03/29 01:41:06;;;;;;;12.32;5.75;;;;;;;;;;1048788;28;20526;-43
2021/03/29 01:41:36;;;;;;;12.23;6.13;;;;;;;;;;1044832;28;20025;-44
2021/03/29 01:42:07;;;;;;;11.13;6.20;;;;;;;;;;1044660;28;20015;-44
2021/03/29 01:42:37;;;;;;;11.60;6.30;;;;;;;;;;1048667;28;20420;-44
2021/03/29 01:43:08;;;;;;;13.33;5.97;;;;;;;;;;1048557;28;20520;-44
2021/03/29 01:43:38;;;;;;;9.47;5.80;;;;;;;;;;1052594;28;20050;-46
2021/03/29 01:44:08;;;;;;;14.00;5.37;;;;;;;;;;1052784;28;20461;-44
2021/03/29 01:44:39;;;;;;;9.77;5.40;;;;;;;;;;1052681;28;20456;-44
2021/03/29 01:45:10;;;;;;;9.60;5.32;;;;;;;;;;1052914;28;20016;-44
2021/03/29 01:45:40;;;;;;;10.20;5.17;;;;;;;;;;1044565;28;20021;-43
2021/03/29 01:46:11;;;;;;;12.30;5.13;;;;;;;;;;1048633;28;20009;-44
2021/03/29 01:46:41;;;;;;;12.07;5.30;;;;;;;;;;1048841;28;20377;-44
2021/03/29 01:47:11;;;;;;;13.57;5.50;;;;;;;;;;1044532;28;20013;-42
2021/03/29 01:47:41;;;;;;;9.40;5.30;;;;;;;;;;1052927;28;20004;-42
2021/03/29 01:48:12;;;;;;;10.23;5.53;;;;;;;;;;1052684;28;20016;-43
2021/03/29 01:48:42;;;;;;;11.93;5.70;;;;;;;;;;1053269;28;20012;-43
2021/03/29 01:49:12;;;;;;;11.60;4.80;;;;;;;;;;1048856;28;20009;-44
2021/03/29 01:49:43;;;;;;;10.70;4.90;;;;;;;;;;1049151;28;20007;-43
2021/03/29 01:50:21;;;;;;;9.00;4.80;;;;;;;;;;1049106;28;20091;-44
2021/03/29 01:50:54;;;;;;;9.00;4.63;;;;;;;;;;1053113;28;20100;-42
2021/03/29 01:51:25;;;;;;;8.15;4.75;;;;;;;;;;1049141;28;20012;-42
2021/03/29 01:51:55;;;;;;;8.87;4.50;;;;;;;;;;1048838;28;20048;-42
2021/03/29 01:52:25;;;;;;;12.10;5.10;;;;;;;;;;1049361;28;20008;-43
2021/03/29 01:52:56;;;;;;;9.63;4.63;;;;;;;;;;1053218;28;20012;-43
2021/03/29 01:53:27;;;;;;;9.10;4.50;;;;;;;;;;1048603;28;20069;-44
2021/03/29 01:53:58;;;;;;;11.38;4.93;;;;;;;;;;1048832;28;20096;-42
2021/03/29 01:54:28;;;;;;;11.90;4.50;;;;;;;;;;1048810;28;20054;-42
2021/03/29 01:54:58;;;;;;;11.37;4.70;;;;;;;;;;1049030;28;20100;-42
2021/03/29 01:55:29;;;;;;;10.30;4.60;;;;;;;;;;1048917;28;20061;-42
2021/03/29 01:55:59;;;;;;;11.43;5.23;;;;;;;;;;1044799;28;20005;-42
2021/03/29 01:56:30;;;;;;;7.80;4.57;;;;;;;;;;1044558;28;20441;-42
2021/03/29 01:57:04;;;;;;;13.97;4.70;;;;;;;;;;1048783;28;20012;-42
2021/03/29 01:57:35;;;;;;;9.65;4.78;;;;;;;;;;1052935;28;20004;-45
2021/03/29 01:58:05;;;;;;;8.90;5.30;;;;;;;;;;1052753;28;20435;-42
2021/03/29 01:58:35;;;;;;;10.00;4.60;;;;;;;;;;1052913;28;20047;-43
2021/03/29 01:59:06;;;;;;;8.70;4.90;;;;;;;;;;1048847;28;20476;-42
2021/03/29 01:59:36;;;;;;;10.60;5.17;;;;;;;;;;1044708;28;20025;-42
2021/03/29 02:00:08;;;;;;;12.43;4.57;;;;;;;;;;1048863;28;20008;-43
2021/03/29 02:00:39;;;;;;;10.45;4.65;;;;;;;;;;1048956;28;20008;-43
2021/03/29 02:01:11;;;;;;;10.27;4.53;;;;;;;;;;1052790;28;20051;-43
2021/03/29 02:01:41;;;;;;;8.65;4.07;;;;;;;;;;1052778;28;20042;-42
2021/03/29 02:02:11;;;;;;;9.33;4.67;;;;;;;;;;1053123;28;20076;-43
2021/03/29 02:02:42;;;;;;;10.93;4.80;;;;;;;;;;1048724;28;20501;-44
2021/03/29 02:03:12;;;;;;;9.73;4.50;;;;;;;;;;1048783;28;20008;-43
2021/03/29 02:03:43;;;;;;;9.13;4.60;;;;;;;;;;1048425;28;19996;-44
2021/03/29 02:04:13;;;;;;;11.50;4.70;;;;;;;;;;1048900;28;20088;-43
2021/03/29 02:04:44;;;;;;;9.73;4.80;;;;;;;;;;1052960;28;20034;-43
2021/03/29 02:05:14;;;;;;;10.73;4.43;;;;;;;;;;1049216;28;20112;-43
2021/03/29 02:05:45;;;;;;;10.40;4.83;;;;;;;;;;1053018;28;20338;-43
2021/03/29 02:06:15;;;;;;;11.20;4.83;;;;;;;;;;1052905;28;20039;-43
2021/03/29 02:06:45;;;;;;;12.27;4.80;;;;;;;;;;1048700;28;20088;-45
2021/03/29 02:07:15;;;;;;;9.50;4.77;;;;;;;;;;1052751;28;20099;-46
2021/03/29 02:07:46;;;;;;;10.20;4.50;;;;;;;;;;1052732;28;20004;-44
2021/03/29 02:08:16;;;;;;;9.77;5.20;;;;;;;;;;1048940;28;20016;-45
2021/03/29 02:08:46;;;;;;;10.50;4.57;;;;;;;;;;1052760;28;20087;-44
2021/03/29 02:09:17;;;;;;;9.97;4.60;;;;;;;;;;1048766;28;20012;-45
2021/03/29 02:09:47;;;;;;;9.77;4.30;;;;;;;;;;1044751;28;20567;-43
2021/03/29 02:10:19;;;;;;;8.80;4.77;;;;;;;;;;1048830;28;20013;-44
2021/03/29 02:10:49;;;;;;;7.95;4.03;;;;;;;;;;1048988;28;20520;-46
2021/03/29 02:11:20;;;;;;;8.63;4.47;;;;;;;;;;1048737;28;20017;-43
2021/03/29 02:11:50;;;;;;;10.17;4.77;;;;;;;;;;1048502;28;20102;-42
2021/03/29 02:12:20;;;;;;;7.47;4.43;;;;;;;;;;1048601;28;20551;-43
2021/03/29 02:12:50;;;;;;;8.70;4.50;;;;;;;;;;1048759;28;20412;-44
2021/03/29 02:13:22;;;;;;;8.53;4.60;;;;;;;;;;1052734;28;20492;-43
2021/03/29 02:13:52;;;;;;;8.27;4.53;;;;;;;;;;1052838;28;20023;-42
2021/03/29 02:14:24;;;;;;;9.63;4.87;;;;;;;;;;1048994;28;20051;-42
2021/03/29 02:14:54;;;;;;;8.00;4.68;;;;;;;;;;1048861;28;20258;-42
2021/03/29 02:15:25;;;;;;;9.83;4.80;;;;;;;;;;1049540;28;20016;-44
2021/03/29 02:15:59;;;;;;;10.57;4.47;;;;;;;;;;1053086;28;20016;-45
2021/03/29 02:16:30;;;;;;;10.70;4.63;;;;;;;;;;1053299;28;20472;-44
2021/03/29 02:17:00;;;;;;;11.87;4.60;;;;;;;;;;1053272;28;20111;-47
2021/03/29 02:17:30;;;;;;;10.30;4.73;;;;;;;;;;1048883;28;20020;-45
2021/03/29 02:18:02;;;;;;;9.13;4.50;;;;;;;;;;1049196;28;20020;-43
2021/03/29 02:18:35;;;;;;;13.20;4.70;;;;;;;;;;1053135;28;20047;-45
2021/03/29 02:19:05;;;;;;;10.10;4.50;;;;;;;;;;1049023;28;20481;-42
2021/03/29 02:19:35;;;;;;;10.50;4.80;;;;;;;;;;1048728;28;20024;-42
2021/03/29 02:20:07;;;;;;;10.17;4.27;;;;;;;;;;1048826;28;20420;-45
2021/03/29 02:20:38;;;;;;;8.40;4.60;;;;;;;;;;1049013;28;20024;-44
2021/03/29 02:21:10;;;;;;;10.30;4.80;;;;;;;;;;1053017;28;20039;-43
2021/03/29 02:21:40;;;;;;;10.73;4.70;;;;;;;;;;1053277;28;20045;-42
2021/03/29 02:22:11;;;;;;;9.30;4.60;;;;;;;;;;1052752;28;20077;-43
2021/03/29 02:22:47;;;;;;;8.87;4.50;;;;;;;;;;1053006;28;20020;-43
2021/03/29 02:23:18;;;;;;;8.73;4.32;;;;;;;;;;1053042;28;20541;-42
2021/03/29 02:23:49;;;;;;;11.40;5.13;;;;;;;;;;1053195;28;20061;-43
2021/03/29 02:24:20;;;;;;;9.00;4.63;;;;;;;;;;1052793;28;20016;-43
2021/03/29 02:24:50;;;;;;;8.43;4.67;;;;;;;;;;1047821;28;20113;-43
2021/03/29 02:25:21;;;;;;;14.03;5.53;;;;;;;;;;1048785;28;20004;-42
2021/03/29 02:25:52;;;;;;;9.60;4.78;;;;;;;;;;1048681;28;20008;-44
2021/03/29 02:26:22;;;;;;;7.23;4.40;;;;;;;;;;1053114;28;20428;-43
2021/03/29 02:26:52;;;;;;;11.93;5.10;;;;;;;;;;1053469;28;20027;-43
2021/03/29 02:27:22;;;;;;;10.17;4.63;;;;;;;;;;1052864;28;20012;-43
2021/03/29 02:27:53;;;;;;;9.73;4.30;;;;;;;;;;1052817;28;20039;-43
2021/03/29 02:28:23;;;;;;;7.93;4.33;;;;;;;;;;1052859;28;20013;-45
2021/03/29 02:28:53;;;;;;;10.77;5.40;;;;;;;;;;1048662;28;20012;-43
2021/03/29 02:29:27;;;;;;;9.77;4.47;;;;;;;;;;1044270;28;20088;-43
2021/03/29 02:29:57;;;;;;;9.18;4.68;;;;;;;;;;1044813;28;20134;-42
2021/03/29 02:30:28;;;;;;;11.33;5.10;;;;;;;;;;1044805;28;20608;-44
2021/03/29 02:30:59;;;;;;;13.57;5.18;;;;;;;;;;1044884;28;20021;-41
2021/03/29 02:31:29;;;;;;;9.20;4.70;;;;;;;;;;1048487;28;20438;-42
2021/03/29 02:31:59;;;;;;;11.30;4.50;;;;;;;;;;1048886;28;20444;-42
2021/03/29 02:32:30;;;;;;;11.17;4.97;;;;;;;;;;1052631;28;20086;-44
2021/03/29 02:33:00;;;;;;;10.33;4.30;;;;;;;;;;1052558;28;20421;-42
2021/03/29 02:33:31;;;;;;;11.50;4.93;;;;;;;;;;1052485;28;20446;-42
2021/03/29 02:34:02;;;;;;;11.33;5.47;;;;;;;;;;1048408;28;20016;-43
2021/03/29 02:34:32;;;;;;;8.57;4.55;;;;;;;;;;1048631;28;20009;-42
2021/03/29 02:35:03;;;;;;;12.70;5.50;;;;;;;;;;1052557;28;20023;-42
2021/03/29 02:35:34;;;;;;;8.77;5.18;;;;;;;;;;1052595;28;20131;-44
2021/03/29 02:36:05;;;;;;;11.68;4.80;;;;;;;;;;1052871;28;20066;-43
2021/03/29 02:36:35;;;;;;;8.67;5.27;;;;;;;;;;1052891;28;20142;-45
2021/03/29 02:37:06;;;;;;;10.97;4.87;;;;;;;;;;1052982;28;20042;-44
2021/03/29 02:37:37;;;;;;;8.50;5.13;;;;;;;;;;1053054;28;20017;-43
2021/03/29 02:38:10;;;;;;;10.60;4.70;;;;;;;;;;1052939;28;20107;-43
2021/03/29 02:38:40;;;;;;;8.60;4.70;;;;;;;;;;1053171;28;20095;-44
2021/03/29 02:39:11;;;;;;;10.20;5.20;;;;;;;;;;1053101;28;20001;-46
2021/03/29 02:39:41;;;;;;;7.93;4.73;;;;;;;;;;1052817;28;20008;-43
2021/03/29 02:40:11;;;;;;;11.70;4.80;;;;;;;;;;1052674;28;20087;-43
2021/03/29 02:40:42;;;;;;;9.97;4.87;;;;;;;;;;1052643;28;20004;-45
2021/03/29 02:41:12;;;;;;;9.97;4.67;;;;;;;;;;1052690;28;20012;-44
2021/03/29 02:41:43;;;;;;;9.13;4.70;;;;;;;;;;1052935;28;20385;-44
2021/03/29 02:42:13;;;;;;;10.60;5.20;;;;;;;;;;1048511;28;20091;-44
2021/03/29 02:42:44;;;;;;;9.43;4.57;;;;;;;;;;1044314;28;20047;-43
2021/03/29 02:43:14;;;;;;;8.82;4.82;;;;;;;;;;1044454;28;20016;-44
2021/03/29 02:43:44;;;;;;;9.17;4.70;;;;;;;;;;1044311;28;20464;-43
2021/03/29 02:44:16;;;;;;;10.47;5.00;;;;;;;;;;1048529;28;20004;-43
2021/03/29 02:44:46;;;;;;;13.98;5.35;;;;;;;;;;1052559;28;20075;-43
2021/03/29 02:45:17;;;;;;;12.43;5.27;;;;;;;;;;1048336;28;20009;-43
2021/03/29 02:45:49;;;;;;;11.47;4.93;;;;;;;;;;1048432;28;20118;-44
2021/03/29 02:46:29;;;;;;;10.60;5.00;;;;;;;;;;1044299;28;20024;-43
2021/03/29 02:46:59;;;;;;;9.27;4.68;;;;;;;;;;1043601;28;20348;-43
2021/03/29 02:47:31;;;;;;;9.17;4.70;;;;;;;;;;1048357;28;20015;-45
2021/03/29 02:48:05;;;;;;;8.65;4.93;;;;;;;;;;1045793;28;20088;-43
2021/03/29 02:48:37;;;;;;;10.88;4.65;;;;;;;;;;1048211;28;20020;-44
2021/03/29 02:49:07;;;;;;;8.15;4.45;;;;;;;;;;1049533;28;20020;-41
2021/03/29 02:49:37;;;;;;;8.23;4.37;;;;;;;;;;1052590;28;20103;-42
2021/03/29 02:50:09;;;;;;;11.80;5.07;;;;;;;;;;1048521;28;20025;-42
2021/03/29 02:50:40;;;;;;;10.20;4.78;;;;;;;;;;1048442;28;20032;-42
2021/03/29 02:51:11;;;;;;;9.52;5.05;;;;;;;;;;1048572;28;20025;-42
2021/03/29 02:51:42;;;;;;;9.80;4.90;;;;;;;;;;1044728;28;20100;-42
2021/03/29 02:52:12;;;;;;;10.63;4.73;;;;;;;;;;1048767;28;20374;-43
2021/03/29 02:52:43;;;;;;;11.97;5.57;;;;;;;;;;1048296;28;20108;-43
2021/03/29 02:53:15;;;;;;;9.88;4.70;;;;;;;;;;1044325;28;20017;-43
2021/03/29 02:53:47;;;;;;;11.70;5.28;;;;;;;;;;1048134;28;20028;-42
2021/03/29 02:54:19;;;;;;;10.88;5.07;;;;;;;;;;1049590;28;20016;-43
2021/03/29 02:54:49;;;;;;;12.60;5.30;;;;;;;;;;1052702;28;20057;-44
2021/03/29 02:55:20;;;;;;;11.13;5.37;;;;;;;;;;1053080;28;20095;-44
2021/03/29 02:55:50;;;;;;;10.27;4.90;;;;;;;;;;1052997;28;20019;-43
2021/03/29 02:56:24;;;;;;;9.57;4.97;;;;;;;;;;1052977;28;20095;-44
2021/03/29 02:56:54;;;;;;;9.82;4.72;;;;;;;;;;1052515;28;20012;-46
2021/03/29 02:57:25;;;;;;;11.63;5.23;;;;;;;;;;1048676;28;20455;-44
2021/03/29 02:57:57;;;;;;;8.17;5.00;;;;;;;;;;1048490;28;20074;-44
2021/03/29 02:58:27;;;;;;;10.05;5.25;;;;;;;;;;1048650;28;20063;-44
2021/03/29 02:59:01;;;;;;;9.47;5.27;;;;;;;;;;1048286;28;20472;-43
2021/03/29 02:59:31;;;;;;;9.80;5.55;;;;;;;;;;1044861;28;20095;-44
2021/03/29 03:00:05;;;;;;;10.40;5.70;;;;;;;;;;1044135;28;20013;-45
2021/03/29 03:00:35;;;;;;;11.77;5.32;;;;;;;;;;1045081;28;20443;-43
2021/03/29 03:01:09;;;;;;;10.93;5.63;;;;;;;;;;1048950;28;20020;-44
2021/03/29 03:01:39;;;;;;;11.82;5.63;;;;;;;;;;1052660;28;20072;-44
2021/03/29 03:02:09;;;;;;;14.10;6.73;;;;;;;;;;1052939;28;20357;-45
2021/03/29 03:02:40;;;;;;;59.23;31.07;;;;;;;;;;1052468;28;20535;-46
2021/03/29 03:03:11;;;;;;;37.15;20.42;;;;;;;;;;1052521;28;20076;-43
2021/03/29 03:03:41;;;;;;;69.63;33.83;;;;;;;;;;1052305;28;20016;-43
2021/03/29 03:04:12;;;;;;;73.67;34.33;;;;;;;;;;1052671;28;20443;-43
2021/03/29 03:04:43;;;;;;;38.53;19.08;;;;;;;;;;1052754;28;20065;-43
2021/03/29 03:05:13;;;;;;;30.00;14.73;;;;;;;;;;1052420;28;20107;-44
2021/03/29 03:05:44;;;;;;;21.77;9.73;;;;;;;;;;1052521;28;20016;-43